Time;durP1;ratioP1;P1;durP2;ratioP2;P2;SDS_P1;SDS_P2;PMS_P1;PMS_P2;Temp;Humidity;BMP_temperature;BMP_pressure;BME280_temperature;BME280_humidity;BME280_pressure;Samples;Min_cycle;Max_cycle;Signal;HPM_P1;HPM_P2
2022/06/21 00:01:14;;;;;;;2.87;1.80;;;;;;;23.98;37.88;99108.72;1774470;81;21484;-61
2022/06/21 00:03:45;;;;;;;3.90;2.08;;;;;;;23.95;37.92;99106.56;1774708;80;21562;-62
2022/06/21 00:06:19;;;;;;;6.55;2.40;;;;;;;23.94;37.90;99104.91;1774798;81;21020;-61
2022/06/21 00:08:50;;;;;;;6.72;1.90;;;;;;;23.92;37.88;99105.80;1774561;81;21001;-61
2022/06/21 00:11:26;;;;;;;3.67;1.80;;;;;;;23.90;37.85;99110.31;1774569;81;21040;-61
2022/06/21 00:13:56;;;;;;;2.77;1.70;;;;;;;23.88;37.82;99098.61;1774615;81;21032;-61
2022/06/21 00:16:28;;;;;;;2.98;1.70;;;;;;;23.86;37.81;99097.27;1774965;81;21052;-60
2022/06/21 00:18:59;;;;;;;3.35;1.75;;;;;;;23.82;37.87;99104.08;1774577;80;21000;-60
2022/06/21 00:21:33;;;;;;;6.12;2.20;;;;;;;23.77;37.94;99106.17;1774726;81;21083;-62
2022/06/21 00:24:03;;;;;;;2.25;1.62;;;;;;;23.75;37.92;99097.27;1774765;81;21052;-61
2022/06/21 00:26:33;;;;;;;1.90;1.60;;;;;;;23.68;37.90;99099.93;1774633;81;21012;-61
2022/06/21 00:29:03;;;;;;;2.33;1.67;;;;;;;23.61;37.97;99085.56;1774544;79;21015;-62
2022/06/21 00:31:35;;;;;;;3.58;1.90;;;;;;;23.58;37.92;99091.78;1774859;79;21032;-61
2022/06/21 00:34:20;;;;;;;2.98;1.80;;;;;;;23.58;37.83;99081.17;1774958;81;21067;-60
2022/06/21 00:36:50;;;;;;;3.87;1.85;;;;;;;23.57;37.79;99083.71;1774442;80;21023;-62
2022/06/21 00:39:19;;;;;;;4.67;1.70;;;;;;;23.55;37.75;99077.03;1720570;81;21024;-61
2022/06/21 00:41:57;;;;;;;2.33;1.42;;;;;;;23.54;37.68;99071.16;1774899;80;21016;-60
2022/06/21 00:44:48;;;;;;;3.40;1.60;;;;;;;23.52;37.62;99073.44;1774628;81;21034;-62
2022/06/21 00:47:24;;;;;;;2.58;1.80;;;;;;;23.51;37.63;99067.59;1736481;82;21036;-61
2022/06/21 00:50:03;;;;;;;7.25;1.47;;;;;;;23.51;37.57;99068.16;1774325;81;21036;-60
2022/06/21 00:52:49;;;;;;;2.80;1.90;;;;;;;23.48;37.53;99065.43;1773448;79;21433;-62
2022/06/21 00:55:42;;;;;;;2.43;1.73;;;;;;;23.46;37.40;99060.73;1774791;81;21064;-60
2022/06/21 00:58:13;;;;;;;2.47;1.72;;;;;;;23.42;37.38;99062.50;1774776;81;21035;-61
2022/06/21 01:00:54;;;;;;;2.70;1.60;;;;;;;23.41;37.26;99053.86;1774587;81;21008;-60
2022/06/21 01:03:28;;;;;;;4.05;1.50;;;;;;;23.39;37.26;99045.75;1774665;81;21036;-61
2022/06/21 01:05:57;;;;;;;3.85;1.75;;;;;;;23.38;37.13;99044.09;1774710;81;21036;-62
2022/06/21 01:08:30;;;;;;;1.95;1.72;;;;;;;23.36;37.09;99038.56;1774685;81;21444;-60
2022/06/21 01:11:04;;;;;;;3.08;1.50;;;;;;;23.34;37.01;99042.25;1774475;79;20996;-61
2022/06/21 01:13:36;;;;;;;2.95;1.90;;;;;;;23.32;36.95;99037.55;1774848;81;21031;-60
2022/06/21 01:16:06;;;;;;;3.00;1.57;;;;;;;23.29;36.95;99037.61;1774565;80;20977;-61
2022/06/21 01:18:37;;;;;;;3.25;2.00;;;;;;;23.29;36.91;99033.98;1774468;81;21016;-61
2022/06/21 01:21:06;;;;;;;3.47;1.70;;;;;;;23.28;36.78;99033.73;1774817;81;21609;-61
2022/06/21 01:23:52;;;;;;;2.85;1.70;;;;;;;23.26;36.83;99031.82;1764194;81;21052;-61
2022/06/21 01:26:56;;;;;;;2.55;1.60;;;;;;;23.27;36.76;99030.67;1774746;80;21024;-62
2022/06/21 01:29:30;;;;;;;2.87;1.60;;;;;;;23.24;36.71;99022.92;1775004;81;21067;-62
2022/06/21 01:32:03;;;;;;;2.00;1.65;;;;;;;23.22;36.75;99023.81;1774563;81;21087;-61
2022/06/21 01:34:32;;;;;;;2.27;1.60;;;;;;;23.21;36.72;99023.55;1774664;79;20996;-61
2022/06/21 01:37:12;;;;;;;3.33;1.72;;;;;;;23.19;36.66;99011.30;1774830;81;21020;-61
2022/06/21 01:39:46;;;;;;;4.00;1.55;;;;;;;23.19;36.61;99002.91;1774696;80;21044;-60
2022/06/21 01:42:42;;;;;;;2.50;1.45;;;;;;;23.18;36.59;99006.02;1774787;81;21040;-61
2022/06/21 01:45:25;;;;;;;4.85;1.70;;;;;;;23.16;36.63;99001.31;1774570;80;21436;-61
2022/06/21 01:48:02;;;;;;;3.30;1.77;;;;;;;23.12;36.59;98998.89;1774688;80;21055;-61
2022/06/21 01:50:31;;;;;;;4.08;1.57;;;;;;;23.09;36.60;98996.16;1774713;80;21446;-64
2022/06/21 01:53:01;;;;;;;2.20;1.77;;;;;;;23.08;36.62;98998.70;1774781;80;21055;-62
2022/06/21 01:55:47;;;;;;;5.90;1.60;;;;;;;23.05;36.57;99001.55;1774741;81;21416;-61
2022/06/21 01:58:21;;;;;;;2.72;1.60;;;;;;;23.02;36.58;98999.38;1774544;80;21056;-63
2022/06/21 02:00:55;;;;;;;3.08;1.90;;;;;;;23.01;36.67;98992.71;1774676;79;21032;-61
2022/06/21 02:03:29;;;;;;;4.00;1.70;;;;;;;23.00;36.69;98996.08;1774974;80;21036;-64
2022/06/21 02:06:03;;;;;;;4.50;1.82;;;;;;;23.02;36.67;98998.55;1774428;81;21437;-61
2022/06/21 02:08:44;;;;;;;1.87;1.42;;;;;;;23.01;36.66;98987.13;1737202;82;21738;-61
2022/06/21 02:11:28;;;;;;;2.83;1.90;;;;;;;23.02;36.67;98995.19;1764615;81;21005;-61
2022/06/21 02:16:51;;;;;;;4.28;1.87;;;;;;;22.99;36.63;98988.84;1774689;81;21020;-63
2022/06/21 02:19:32;;;;;;;3.42;2.17;;;;;;;22.94;36.66;98984.77;1774549;80;21012;-62
2022/06/21 02:22:03;;;;;;;1.62;1.50;;;;;;;22.91;36.74;98978.98;1736257;82;20999;-61
2022/06/21 02:24:33;;;;;;;6.08;2.20;;;;;;;22.88;36.82;98980.43;1774723;81;20996;-62
2022/06/21 02:27:04;;;;;;;4.95;1.75;;;;;;;22.86;36.86;98975.73;1774511;81;21044;-61
2022/06/21 02:29:33;;;;;;;4.85;1.80;;;;;;;22.84;36.92;98968.23;1774530;81;21028;-61
2022/06/21 02:32:02;;;;;;;3.75;1.70;;;;;;;22.82;36.99;98962.70;1774567;81;21036;-61
2022/06/21 02:34:38;;;;;;;4.90;1.80;;;;;;;22.82;37.06;98965.50;1774705;81;21425;-61
2022/06/21 02:37:09;;;;;;;4.20;1.52;;;;;;;22.84;37.05;98961.82;1774818;81;21071;-61
2022/06/21 02:39:38;;;;;;;3.25;1.70;;;;;;;22.82;37.08;98963.53;1774783;81;21075;-62
2022/06/21 02:42:13;;;;;;;3.87;1.90;;;;;;;22.78;37.18;98957.71;1774715;80;21048;-61
2022/06/21 02:44:47;;;;;;;3.83;1.80;;;;;;;22.73;37.31;98947.20;1774828;81;20986;-62
2022/06/21 02:47:23;;;;;;;2.45;1.75;;;;;;;22.71;37.40;98945.28;1776741;80;21031;-61
2022/06/21 02:50:05;;;;;;;2.37;1.67;;;;;;;22.71;37.48;98950.30;1788284;80;21039;-61
2022/06/21 02:52:40;;;;;;;3.47;1.72;;;;;;;22.69;37.51;98944.20;1788197;80;21490;-61
2022/06/21 02:55:37;;;;;;;2.80;1.80;;;;;;;22.68;37.58;98943.12;1771099;80;21023;-61
2022/06/21 02:58:12;;;;;;;2.70;1.50;;;;;;;22.66;37.68;98942.61;1788640;79;21015;-61
2022/06/21 03:00:42;;;;;;;3.70;1.70;;;;;;;22.66;37.73;98932.27;1788455;80;21036;-61
2022/06/21 03:03:23;;;;;;;2.60;1.70;;;;;;;22.66;37.83;98930.04;1788304;80;20996;-60
2022/06/21 03:05:57;;;;;;;5.55;2.00;;;;;;;22.66;37.88;98926.68;1788559;80;21075;-61
2022/06/21 03:08:30;;;;;;;4.90;1.80;;;;;;;22.67;37.95;98918.56;1788062;80;21432;-61
2022/06/21 03:11:00;;;;;;;5.80;1.80;;;;;;;22.70;37.98;98914.31;1788107;80;21452;-61
2022/06/21 03:13:33;;;;;;;3.25;1.72;;;;;;;22.71;38.06;98914.00;1788546;80;21637;-61
2022/06/21 03:16:08;;;;;;;5.28;1.95;;;;;;;22.72;38.14;98910.64;1788600;80;21048;-61
2022/06/21 03:18:44;;;;;;;2.80;1.82;;;;;;;22.71;38.23;98908.98;1788491;80;21035;-62
2022/06/21 03:21:14;;;;;;;6.40;1.90;;;;;;;22.70;38.33;98912.34;1788581;80;21043;-62
2022/06/21 03:23:44;;;;;;;3.40;2.00;;;;;;;22.69;38.47;98911.27;1788369;80;20967;-60
2022/06/21 03:26:13;;;;;;;2.75;1.77;;;;;;;22.70;38.58;98909.55;1788588;80;21012;-61
2022/06/21 03:28:48;;;;;;;5.75;1.90;;;;;;;22.70;38.70;98898.95;1788261;80;21008;-61
2022/06/21 03:31:36;;;;;;;3.00;1.98;;;;;;;22.70;38.79;98904.55;1788701;79;21031;-61
2022/06/21 03:34:09;;;;;;;5.37;2.33;;;;;;;22.69;38.84;98895.34;1788492;79;21034;-61
2022/06/21 03:36:39;;;;;;;3.85;2.10;;;;;;;22.70;38.96;98894.77;1788467;80;21106;-61
2022/06/21 03:39:15;;;;;;;5.22;2.40;;;;;;;22.73;39.11;98899.72;1788469;80;21388;-62
2022/06/21 03:41:44;;;;;;;2.75;1.98;;;;;;;22.75;39.10;98900.23;1788214;80;21016;-62
2022/06/21 03:44:36;;;;;;;5.67;2.37;;;;;;;22.76;39.19;98905.54;1788162;80;21015;-61
2022/06/21 03:47:22;;;;;;;3.37;1.90;;;;;;;22.78;39.36;98888.47;1788244;80;21016;-62
2022/06/21 03:50:14;;;;;;;2.97;2.17;;;;;;;22.80;39.36;98889.55;1788714;80;21317;-61
2022/06/21 03:53:09;;;;;;;3.70;2.30;;;;;;;22.82;39.44;98887.30;1788358;80;21059;-63
2022/06/21 03:56:00;;;;;;;5.65;2.05;;;;;;;22.83;39.55;98893.97;1788308;79;21428;-62
2022/06/21 03:58:52;;;;;;;4.58;2.70;;;;;;;22.82;39.72;98886.73;1788290;79;21521;-61
2022/06/21 04:01:35;;;;;;;3.77;1.90;;;;;;;22.83;39.82;98895.36;1788220;80;21059;-60
2022/06/21 04:04:13;;;;;;;5.05;2.30;;;;;;;22.85;39.95;98895.87;1788257;80;20999;-62
2022/06/21 04:06:55;;;;;;;5.17;2.02;;;;;;;22.87;40.01;98893.59;1788379;80;21416;-62
2022/06/21 04:10:00;;;;;;;3.37;2.17;;;;;;;22.87;40.07;98882.42;1788140;80;21460;-62
2022/06/21 04:13:04;;;;;;;5.12;2.52;;;;;;;22.91;40.16;98889.59;1788035;80;21011;-62
2022/06/21 04:16:01;;;;;;;4.35;2.00;;;;;;;22.97;40.23;98875.19;1788139;80;21448;-61
2022/06/21 04:18:35;;;;;;;4.17;2.30;;;;;;;23.03;40.22;98871.13;1788169;80;20999;-62
2022/06/21 04:21:15;;;;;;;4.60;2.20;;;;;;;23.07;40.22;98867.13;1788286;80;21040;-61
2022/06/21 04:24:16;;;;;;;7.30;2.33;;;;;;;23.16;40.28;98869.98;1788472;80;21007;-61
2022/06/21 04:26:56;;;;;;;5.45;2.40;;;;;;;23.22;40.25;98871.51;1788173;80;21063;-67
2022/06/21 04:29:31;;;;;;;4.55;2.20;;;;;;;23.30;40.44;98863.75;1788091;80;21489;-61
2022/06/21 04:32:14;;;;;;;6.25;2.50;;;;;;;23.34;40.40;98866.98;1788292;80;21070;-60
2022/06/21 04:34:58;;;;;;;7.03;2.90;;;;;;;23.41;40.52;98869.36;1788285;80;21523;-61
2022/06/21 04:37:53;;;;;;;4.15;2.37;;;;;;;23.46;40.48;98873.99;1788265;80;21431;-62
2022/06/21 04:40:46;;;;;;;6.12;3.30;;;;;;;23.53;40.65;98870.99;1788381;80;21035;-61
2022/06/21 04:43:20;;;;;;;5.05;2.30;;;;;;;23.60;40.46;98856.02;1788408;80;21044;-61
2022/06/21 04:45:57;;;;;;;5.50;2.50;;;;;;;23.69;40.38;98865.27;1788472;80;20999;-60
2022/06/21 04:49:01;;;;;;;5.95;2.30;;;;;;;23.78;40.45;98862.52;1782866;80;21027;-61
2022/06/21 04:51:45;;;;;;;3.85;2.50;;;;;;;23.87;40.49;98859.75;1774404;81;21024;-61
2022/06/21 04:54:30;;;;;;;4.37;2.60;;;;;;;23.98;40.33;98849.92;1729072;82;20991;-62
2022/06/21 04:57:04;;;;;;;8.23;2.62;;;;;;;24.14;40.31;98851.16;1774502;79;20981;-62
2022/06/21 04:59:40;;;;;;;6.67;2.70;;;;;;;24.36;39.90;98841.84;1774455;80;21053;-62
2022/06/21 05:02:21;;;;;;;7.43;2.37;;;;;;;24.61;39.74;98848.63;1774831;80;21068;-60
2022/06/21 05:04:58;;;;;;;8.15;2.62;;;;;;;24.92;39.31;98835.89;1774503;81;21693;-62
2022/06/21 05:07:31;;;;;;;5.25;2.58;;;;;;;25.32;38.79;98845.52;1774739;80;21004;-62
2022/06/21 05:10:00;;;;;;;5.70;2.37;;;;;;;25.65;38.21;98833.16;1774540;80;21062;-62
2022/06/21 05:12:40;;;;;;;7.28;2.62;;;;;;;25.89;37.74;98830.61;1774760;81;21047;-62
2022/06/21 05:15:18;;;;;;;8.48;3.10;;;;;;;26.08;37.56;98825.42;1774604;81;21039;-62
2022/06/21 05:18:14;;;;;;;4.15;2.52;;;;;;;26.38;37.27;98824.03;1774778;81;21032;-62
2022/06/21 05:20:56;;;;;;;6.25;2.60;;;;;;;26.68;36.81;98820.63;1774910;81;20995;-62
2022/06/21 05:23:25;;;;;;;2.90;2.15;;;;;;;26.95;36.25;98819.23;1773188;80;21068;-61
2022/06/21 05:25:54;;;;;;;5.55;2.50;;;;;;;27.16;35.73;98818.06;1774444;81;21040;-62
2022/06/21 05:28:41;;;;;;;3.52;2.45;;;;;;;27.40;35.77;98817.92;1774830;81;21428;-62
2022/06/21 05:31:27;;;;;;;8.28;2.47;;;;;;;27.68;35.22;98810.50;1774626;81;21451;-62
2022/06/21 05:34:00;;;;;;;;;;;;;;;27.95;34.85;98807.59;1777556;81;21404;-63
2022/06/21 05:36:37;;;;;;;4.58;2.42;;;;;;;28.27;34.37;98805.88;1774703;81;20150;-64
2022/06/21 05:39:20;;;;;;;;;;;;;;;28.48;33.96;98803.48;1777167;79;21036;-63
2022/06/21 05:41:48;;;;;;;3.45;2.22;;;;;;;28.57;33.92;98804.17;1774803;80;20177;-65
2022/06/21 05:44:45;;;;;;;8.98;2.80;;;;;;;28.73;33.87;98812.14;1774428;81;21039;-64
2022/06/21 05:47:27;;;;;;;6.08;3.00;;;;;;;28.96;33.57;98812.45;1774671;81;21428;-63
2022/06/21 05:49:57;;;;;;;5.80;2.80;;;;;;;29.26;33.13;98795.97;1786285;79;21078;-67
2022/06/21 05:52:33;;;;;;;5.97;2.45;;;;;;;29.48;32.66;98801.07;1788467;80;21003;-65
2022/06/21 05:55:10;;;;;;;7.70;2.53;;;;;;;29.56;32.72;98807.73;1788361;80;21031;-64
2022/06/21 05:57:53;;;;;;;7.90;3.17;;;;;;;29.70;32.49;98789.75;1788209;80;21003;-63
2022/06/21 06:00:47;;;;;;;6.25;2.60;;;;;;;29.76;32.22;98795.34;1788727;80;21073;-65
2022/06/21 06:03:29;;;;;;;8.03;2.90;;;;;;;29.88;32.24;98802.31;1788187;80;21043;-65
2022/06/21 06:06:04;;;;;;;6.47;3.17;;;;;;;30.08;32.21;98785.50;1788197;80;21031;-64
2022/06/21 06:08:38;;;;;;;4.95;2.80;;;;;;;30.24;32.16;98782.88;1788427;80;21036;-64
2022/06/21 06:11:24;;;;;;;7.90;2.95;;;;;;;30.42;31.72;98781.87;1788365;80;21036;-65
2022/06/21 06:13:55;;;;;;;6.10;2.75;;;;;;;30.65;31.55;98774.14;1788229;80;21050;-64
2022/06/21 06:16:36;;;;;;;7.80;3.22;;;;;;;30.84;31.14;98772.73;1788293;80;21083;-64
2022/06/21 06:19:15;;;;;;;11.68;2.95;;;;;;;30.92;31.16;98777.34;1788090;80;21023;-64
2022/06/21 06:22:09;;;;;;;7.58;2.90;;;;;;;31.02;31.21;98779.58;1788158;80;21005;-63
2022/06/21 06:24:50;;;;;;;5.05;2.62;;;;;;;31.17;30.92;98777.28;1788090;80;21090;-64
2022/06/21 06:27:49;;;;;;;5.58;2.58;;;;;;;31.35;30.86;98773.41;1788096;80;20972;-64
2022/06/21 06:30:26;;;;;;;7.30;3.30;;;;;;;31.50;30.67;98780.97;1788306;80;21060;-64
2022/06/21 06:33:29;;;;;;;8.93;3.10;;;;;;;31.53;30.72;98781.63;1788540;80;21079;-64
2022/06/21 06:35:58;;;;;;;6.70;3.15;;;;;;;31.61;30.53;98778.92;1788164;80;21459;-64
2022/06/21 06:38:28;;;;;;;9.78;2.72;;;;;;;31.49;30.78;98780.74;1788205;80;20999;-63
2022/06/21 06:41:12;;;;;;;5.72;3.50;;;;;;;31.58;30.75;98777.66;1771156;80;21048;-64
2022/06/21 06:43:52;;;;;;;6.87;2.67;;;;;;;31.71;30.74;98770.64;1788165;80;21120;-65
2022/06/21 06:46:29;;;;;;;8.83;3.15;;;;;;;31.83;30.70;98766.20;1788323;80;21472;-63
2022/06/21 06:49:17;;;;;;;5.20;2.83;;;;;;;32.03;30.46;98763.30;1779204;80;21036;-65
2022/06/21 06:52:16;;;;;;;6.20;3.02;;;;;;;32.15;30.49;98767.34;1774697;81;21044;-65
2022/06/21 06:55:08;;;;;;;6.22;2.90;;;;;;;32.22;30.26;98764.61;1774429;80;21031;-63
2022/06/21 06:58:01;;;;;;;13.65;4.12;;;;;;;32.06;30.80;98745.53;1774407;81;20980;-66
2022/06/21 07:00:37;;;;;;;9.90;3.33;;;;;;;32.20;30.89;98745.75;1774502;81;21149;-64
2022/06/21 07:03:22;;;;;;;8.35;3.17;;;;;;;32.32;30.71;98743.32;1774467;81;21012;-65
2022/06/21 07:06:18;;;;;;;9.33;3.83;;;;;;;32.50;30.79;98740.73;1774861;81;21001;-65
2022/06/21 07:09:03;;;;;;;9.43;3.90;;;;;;;32.77;30.52;98751.69;1774408;79;21028;-64
2022/06/21 07:11:43;;;;;;;9.00;4.05;;;;;;;32.76;30.71;98752.86;1774481;81;21412;-64
2022/06/21 07:14:20;;;;;;;8.25;3.35;;;;;;;32.78;30.88;98744.00;1774715;80;21068;-64
2022/06/21 07:16:55;;;;;;;6.58;3.33;;;;;;;33.00;30.62;98745.06;1774461;81;21008;-63
2022/06/21 07:19:26;;;;;;;8.65;3.30;;;;;;;33.29;30.24;98738.52;1773497;81;21478;-64
2022/06/21 07:21:55;;;;;;;6.22;3.47;;;;;;;33.49;30.34;98737.73;1774399;81;21083;-64
2022/06/21 07:24:24;;;;;;;9.85;4.62;;;;;;;33.67;30.07;98749.26;1773989;81;21466;-64
2022/06/21 07:26:58;;;;;;;8.35;3.83;;;;;;;33.78;29.79;98747.33;1774701;81;21109;-63
2022/06/21 07:29:37;;;;;;;6.35;3.75;;;;;;;33.87;29.67;98745.03;1774445;81;21032;-63
2022/06/21 07:32:11;;;;;;;9.00;3.95;;;;;;;33.98;29.54;98741.66;1774603;80;21040;-65
2022/06/21 07:34:53;;;;;;;6.72;3.83;;;;;;;34.00;29.85;98752.03;1774500;81;21039;-64
2022/06/21 07:37:28;;;;;;;8.03;3.67;;;;;;;34.01;29.83;98740.88;1774466;81;21036;-64
2022/06/21 07:40:05;;;;;;;7.45;3.37;;;;;;;33.97;30.10;98740.63;1773193;80;21024;-65
2022/06/21 07:42:49;;;;;;;9.03;3.77;;;;;;;34.06;30.15;98743.95;1774653;80;21071;-65
2022/06/21 07:45:26;;;;;;;5.90;4.17;;;;;;;34.17;30.05;98741.17;1734971;82;21111;-64
2022/06/21 07:48:23;;;;;;;6.75;3.90;;;;;;;34.21;30.05;98732.06;1774456;81;21056;-64
2022/06/21 07:50:59;;;;;;;6.53;3.67;;;;;;;34.31;30.01;98744.92;1774704;80;21035;-64
2022/06/21 07:54:01;;;;;;;9.10;4.12;;;;;;;34.21;30.07;98732.06;1772050;81;21040;-65
2022/06/21 07:56:44;;;;;;;6.83;3.60;;;;;;;34.18;30.33;98727.98;1772649;81;21013;-65
2022/06/21 07:59:22;;;;;;;11.80;4.58;;;;;;;34.30;30.31;98723.39;1706606;84;21028;-63
2022/06/21 08:07:56;;;;;;;11.48;4.40;;;;;;;34.15;30.66;98726.55;1745792;81;21864;-64
2022/06/21 08:10:40;;;;;;;8.55;4.03;;;;;;;34.25;30.75;98735.14;1767540;81;21355;-62
2022/06/21 08:13:10;;;;;;;11.60;4.15;;;;;;;34.41;30.11;98726.94;1754261;79;21043;-65
2022/06/21 08:15:43;;;;;;;8.23;4.50;;;;;;;34.42;30.15;98717.19;1699128;84;21112;-63
2022/06/21 08:18:30;;;;;;;8.95;4.85;;;;;;;34.52;30.15;98720.12;1754827;81;21010;-63
2022/06/21 08:21:04;;;;;;;10.78;4.22;;;;;;;34.59;30.11;98712.22;1743637;81;21034;-65
2022/06/21 08:23:50;;;;;;;8.38;4.53;;;;;;;34.62;29.79;98719.95;1743691;82;21019;-66
2022/06/21 08:26:41;;;;;;;7.35;4.03;;;;;;;34.54;29.97;98719.11;1743197;82;22152;-68
2022/06/21 08:29:28;;;;;;;7.75;3.98;;;;;;;34.69;29.97;98706.37;1743396;82;21028;-65
2022/06/21 08:32:10;;;;;;;8.68;4.10;;;;;;;34.70;29.88;98717.95;1743433;82;20996;-65
2022/06/21 08:34:48;;;;;;;7.90;3.92;;;;;;;34.48;29.94;98719.28;1743247;81;21016;-63
2022/06/21 08:37:52;;;;;;;10.18;4.83;;;;;;;34.07;30.20;98716.34;1743365;82;20984;-65
2022/06/21 08:40:32;;;;;;;12.47;3.90;;;;;;;33.69;30.25;98711.33;1742734;81;21087;-63
2022/06/21 08:43:38;;;;;;;8.70;3.95;;;;;;;33.44;30.35;98709.70;1744021;82;21016;-63
2022/06/21 08:46:22;;;;;;;12.00;4.05;;;;;;;33.24;30.65;98708.25;1743973;82;21004;-63
2022/06/21 08:49:15;;;;;;;7.85;3.90;;;;;;;33.05;31.08;98705.80;1770957;81;21440;-63
2022/06/21 08:52:16;;;;;;;16.10;7.85;;;;;;;32.96;31.19;98701.65;1778531;81;21059;-65
2022/06/21 08:55:22;;;;;;;6.37;4.25;;;;;;;33.03;31.72;98703.14;1778305;81;21042;-63
2022/06/21 08:58:16;;;;;;;8.70;4.20;;;;;;;33.26;31.46;98699.56;1709650;84;21035;-64
2022/06/21 09:01:22;;;;;;;11.45;4.35;;;;;;;33.49;31.03;98702.23;1778641;81;21408;-64
2022/06/21 09:04:26;;;;;;;12.37;4.42;;;;;;;33.57;30.93;98695.41;1709679;84;21545;-65
2022/06/21 09:07:48;;;;;;;7.75;3.95;;;;;;;33.56;30.88;98696.62;1714553;83;21083;-69
2022/06/21 09:10:25;;;;;;;7.53;3.70;;;;;;;33.64;30.73;98688.97;1660894;86;21090;-66
2022/06/21 09:13:16;;;;;;;10.82;4.25;;;;;;;33.66;30.73;98688.79;1660852;86;21537;-65
2022/06/21 09:16:00;;;;;;;6.55;3.52;;;;;;;33.71;30.47;98694.70;1660725;86;21499;-65
2022/06/21 09:18:55;;;;;;;10.23;4.25;;;;;;;33.73;30.04;98688.03;1660784;86;21549;-64
2022/06/21 09:21:48;;;;;;;6.97;3.50;;;;;;;33.56;30.48;98688.09;1661441;86;21101;-65
2022/06/21 09:24:31;;;;;;;7.42;4.08;;;;;;;33.31;30.74;98685.04;1665858;85;21141;-65
2022/06/21 09:27:22;;;;;;;5.72;3.77;;;;;;;33.27;31.11;98681.92;1690160;83;21050;-65
2022/06/21 09:30:31;;;;;;;15.40;7.40;;;;;;;33.20;31.15;98674.16;1690067;85;21057;-66
2022/06/21 09:33:27;;;;;;;9.28;4.72;;;;;;;33.10;31.21;98674.23;1690316;85;21010;-62
2022/06/21 09:36:13;;;;;;;8.28;4.10;;;;;;;33.06;31.41;98668.31;1633647;88;21546;-63
2022/06/21 09:39:09;;;;;;;5.22;3.50;;;;;;;32.97;31.43;98665.79;1684212;85;21523;-66
2022/06/21 09:41:50;;;;;;;10.88;4.10;;;;;;;32.90;31.71;98662.06;1724614;82;21124;-65
2022/06/21 09:44:51;;;;;;;15.90;4.05;;;;;;;32.81;31.77;98668.05;1749517;82;21105;-65
2022/06/21 09:47:43;;;;;;;8.18;3.65;;;;;;;32.76;31.95;98668.36;1749408;81;21050;-65
2022/06/21 09:50:27;;;;;;;9.38;4.00;;;;;;;32.57;32.09;98662.27;1698541;83;21501;-64
2022/06/21 09:53:28;;;;;;;7.28;3.47;;;;;;;32.43;32.29;98653.56;1697776;83;21041;-65
2022/06/21 09:56:28;;;;;;;8.63;3.98;;;;;;;32.31;32.32;98648.95;1697728;84;21093;-65
2022/06/21 09:59:21;;;;;;;8.83;3.95;;;;;;;32.19;32.65;98638.44;1697867;84;21065;-66
2022/06/21 10:02:05;;;;;;;11.90;3.45;;;;;;;32.14;32.82;98635.34;1697934;83;21084;-66
2022/06/21 10:05:03;;;;;;;7.92;3.98;;;;;;;32.19;32.94;98636.42;1697621;84;21476;-65
2022/06/21 10:07:41;;;;;;;6.87;3.17;;;;;;;32.22;32.61;98641.31;1697829;84;21045;-65
2022/06/21 10:10:36;;;;;;;6.80;3.45;;;;;;;32.09;32.57;98635.67;1696317;84;21045;-66
2022/06/21 10:13:19;;;;;;;6.37;3.52;;;;;;;31.93;32.93;98643.55;1697888;84;21543;-65
2022/06/21 10:16:44;;;;;;;17.67;4.58;;;;;;;31.71;33.41;98655.95;1678105;84;21017;-65
2022/06/21 10:20:04;;;;;;;14.43;4.08;;;;;;;31.54;34.55;98673.44;1697934;84;21485;-64
2022/06/21 10:22:57;;;;;;;10.43;4.10;;;;;;;30.88;36.30;98681.70;1735647;82;21033;-65
2022/06/21 10:25:54;;;;;;;15.78;4.65;;;;;;;30.17;37.87;98681.59;1747612;82;21608;-64
2022/06/21 10:28:53;;;;;;;10.68;3.85;;;;;;;29.81;38.88;98667.19;1747632;82;21033;-66
2022/06/21 10:31:30;;;;;;;11.63;4.10;;;;;;;29.45;40.07;98679.62;1747610;82;21049;-65
2022/06/21 10:34:08;;;;;;;16.23;4.28;;;;;;;29.16;41.67;98680.84;1747382;82;21085;-65
2022/06/21 10:36:56;;;;;;;10.58;3.87;;;;;;;28.88;41.88;98683.13;1747627;82;21132;-65
2022/06/21 10:39:56;;;;;;;12.07;4.12;;;;;;;28.45;42.44;98679.64;1747398;82;21021;-66
2022/06/21 10:42:48;;;;;;;12.90;3.58;;;;;;;28.10;43.07;98680.19;1747349;82;21065;-65
2022/06/21 10:45:47;;;;;;;6.15;3.37;;;;;;;27.89;43.96;98680.91;1746521;82;21414;-66
2022/06/21 10:48:43;;;;;;;7.97;4.40;;;;;;;27.79;43.93;98688.43;1747377;82;21050;-70
2022/06/21 10:51:30;;;;;;;5.85;3.67;;;;;;;27.71;44.02;98686.56;1771591;80;21075;-66
2022/06/21 10:54:20;;;;;;;10.30;4.25;;;;;;;27.57;45.02;98705.18;1714019;84;21112;-66
2022/06/21 10:57:35;;;;;;;11.53;4.50;;;;;;;27.48;44.94;98708.11;1780447;80;21020;-66
2022/06/21 11:03:34;;;;;;;10.53;4.22;;;;;;;27.34;45.14;98715.25;1781045;80;21027;-63
2022/06/21 11:06:33;;;;;;;8.43;4.80;;;;;;;27.21;45.43;98725.63;1780797;80;21041;-62
2022/06/21 11:09:17;;;;;;;10.20;4.80;;;;;;;27.02;45.92;98735.19;1780985;80;21027;-63
2022/06/21 11:15:31;;;;;;;10.05;5.85;;;;;;;26.73;46.83;98748.17;1781101;80;21031;-64
2022/06/21 11:18:24;;;;;;;9.93;6.03;;;;;;;26.65;47.39;98732.77;1780981;80;21055;-65
2022/06/21 11:21:16;;;;;;;11.88;6.55;;;;;;;26.66;47.65;98746.51;1778682;80;21404;-62
2022/06/21 11:24:29;;;;;;;13.80;6.35;;;;;;;26.52;48.44;98747.34;1751414;80;21505;-69
2022/06/21 11:27:13;;;;;;;10.75;6.33;;;;;;;26.41;48.92;98734.88;1751090;81;21477;-62
2022/06/21 11:29:54;;;;;;;13.08;7.12;;;;;;;26.46;49.81;98733.27;1751461;82;21409;-63
2022/06/21 11:32:31;;;;;;;11.75;7.47;;;;;;;26.47;50.02;98730.12;1751561;82;21503;-64
2022/06/21 11:35:32;;;;;;;10.45;6.75;;;;;;;26.46;50.59;98722.86;1751465;82;21018;-61
2022/06/21 11:38:32;;;;;;;12.55;7.55;;;;;;;26.45;50.93;98714.78;1751594;82;21009;-61
2022/06/21 11:42:04;;;;;;;14.75;7.47;;;;;;;26.37;50.85;98750.78;1659392;85;21091;-63
2022/06/21 11:43:59;;;;;;;13.62;6.62;;;;;;;26.31;51.03;98754.92;1656665;85;21094;-63
2022/06/21 11:46:42;;;;;;;86.10;8.40;;;;;;;26.22;51.00;98821.79;1675363;83;21496;-62
2022/06/21 11:49:36;;;;;;;21.57;3.47;;;;;;;25.76;50.62;98847.91;1699239;84;21166;-63
2022/06/21 11:52:34;;;;;;;11.30;2.42;;;;;;;25.05;52.63;98876.14;1698877;84;21512;-62
2022/06/21 11:55:30;;;;;;;8.33;2.02;;;;;;;24.25;54.11;98872.09;1689650;84;21463;-62
2022/06/21 11:58:21;;;;;;;5.15;1.57;;;;;;;23.54;55.59;98904.80;1699466;84;21072;-67
2022/06/21 12:01:18;;;;;;;16.17;3.25;;;;;;;23.10;57.42;98950.31;1699054;84;21476;-75
2022/06/21 12:03:56;;;;;;;6.70;2.50;;;;;;;22.57;65.94;98906.80;1699347;84;21047;-72
2022/06/21 12:06:56;;;;;;;6.80;2.20;;;;;;;21.56;71.12;98906.26;1625007;88;21103;-70
2022/06/21 12:13:01;;;;;;;4.40;1.67;;;;;;;19.95;79.43;98900.71;1829458;77;22113;-69
2022/06/21 12:15:44;;;;;;;9.25;2.27;;;;;;;19.44;81.92;98921.75;1723464;83;21122;-69
2022/06/21 12:18:17;;;;;;;5.25;2.30;;;;;;;19.12;84.49;98941.19;1739783;82;21159;-77
2022/06/21 12:20:52;;;;;;;5.08;2.30;;;;;;;19.03;87.23;98937.92;1723806;83;21561;-69
2022/06/21 12:23:37;;;;;;;5.33;2.65;;;;;;;19.02;89.01;98941.27;1739732;82;21131;-71
2022/06/21 12:26:06;;;;;;;3.92;2.60;;;;;;;18.92;88.91;98934.39;1721981;83;21181;-68
2022/06/21 12:28:36;;;;;;;2.40;1.70;;;;;;;18.94;91.01;98926.05;1713129;82;21131;-70
2022/06/21 12:31:26;;;;;;;7.67;2.20;;;;;;;18.93;90.71;98932.72;1723758;83;21722;-69
2022/06/21 12:34:06;;;;;;;5.33;1.90;;;;;;;18.88;91.36;98926.37;1739686;82;21186;-70
2022/06/21 12:37:01;;;;;;;3.70;2.17;;;;;;;18.87;90.42;98924.16;1704831;83;21716;-69
2022/06/21 12:39:48;;;;;;;4.20;2.05;;;;;;;18.74;88.79;98926.72;1722764;82;21123;-68
2022/06/21 12:42:32;;;;;;;3.42;1.72;;;;;;;18.64;89.62;98946.47;1723872;83;21115;-69
2022/06/21 12:45:25;;;;;;;4.05;1.90;;;;;;;18.60;87.67;98938.42;1739797;82;21108;-69
2022/06/21 12:48:14;;;;;;;6.83;1.90;;;;;;;18.34;87.26;98954.36;1715419;83;21213;-69
2022/06/21 12:50:58;;;;;;;3.55;1.67;;;;;;;18.16;87.45;98964.66;1710318;84;21176;-68
2022/06/21 12:53:54;;;;;;;2.35;1.70;;;;;;;18.14;88.32;98973.81;1738779;82;21138;-69
2022/06/21 12:56:40;;;;;;;2.85;2.00;;;;;;;18.12;88.45;98961.34;1735962;81;21184;-68
2022/06/21 12:59:32;;;;;;;3.77;2.12;;;;;;;18.09;88.10;98946.11;1717550;82;21094;-69
2022/06/21 13:02:57;;;;;;;5.28;2.60;;;;;;;18.16;89.22;98949.41;1723151;82;21604;-68
2022/06/21 13:05:53;;;;;;;2.65;2.05;;;;;;;18.28;90.66;98951.89;1716716;82;21556;-69